PAD weather

Paderborn Lippstadt Airport
Paderborn, North Rhine-Westphalia, Germany

Public forecast

Using degrees Celsius for public forecast. Weather courtesy of forecast.io.

Current aviation weather report (METAR) for Paderborn Lippstadt Airport

Retrieved 2020/08/04 14:20 UTC (11 minutes ago):

EDLP 041420Z 32005KT 260V010 CAVOK 20/08 Q1017

Aviation forecast (TAF) for Paderborn Lippstadt Airport

Retrieved 2020/08/04 12:27 UTC (2 hours ago):

TAF TAF EDLP 041100Z 0412/0512 31007KT CAVOK BECMG 0417/0420 VRB03KT BECMG 0500/0503 16005KT BECMG 0507/0510 22007KT